Time;durP1;ratioP1;P1;durP2;ratioP2;P2;SDS_P1;SDS_P2;PMS_P1;PMS_P2;Temp;Humidity;BMP_temperature;BMP_pressure;BME280_temperature;BME280_humidity;BME280_pressure;Samples;Min_cycle;Max_cycle;Signal;HPM_P1;HPM_P2
2023/06/07 00:02:00;;;;;;;17.15;5.75;;;12.10;99.90;;;;;;5072902;28;20043;-57
2023/06/07 00:04:26;;;;;;;17.90;4.88;;;12.20;99.90;;;;;;5072979;28;20107;-57
2023/06/07 00:06:56;;;;;;;14.98;4.82;;;12.10;99.90;;;;;;5072652;28;20040;-57
2023/06/07 00:09:22;;;;;;;18.70;5.88;;;12.10;99.90;;;;;;5083450;28;20044;-58
2023/06/07 00:11:48;;;;;;;11.43;5.18;;;12.10;99.90;;;;;;5092794;28;20165;-56
2023/06/07 00:14:13;;;;;;;16.58;5.43;;;12.10;99.90;;;;;;5087169;28;20387;-56
2023/06/07 00:16:39;;;;;;;13.13;5.15;;;12.10;99.90;;;;;;5083683;28;20468;-56
2023/06/07 00:19:06;;;;;;;15.70;4.90;;;12.00;99.90;;;;;;5092688;28;20567;-57
2023/06/07 00:21:32;;;;;;;15.93;4.88;;;12.00;99.90;;;;;;5092739;28;20394;-57
2023/06/07 00:23:57;;;;;;;12.23;4.93;;;12.10;99.90;;;;;;5092630;28;20043;-57
2023/06/07 00:26:23;;;;;;;17.02;5.03;;;12.00;99.90;;;;;;5092441;28;20055;-58
2023/06/07 00:28:49;;;;;;;15.25;4.95;;;12.00;99.90;;;;;;5092620;28;20044;-57
2023/06/07 00:31:15;;;;;;;11.32;4.97;;;12.00;99.90;;;;;;5092867;28;20036;-57
2023/06/07 00:33:40;;;;;;;12.55;4.72;;;12.00;99.90;;;;;;5092288;28;20097;-57
2023/06/07 00:36:06;;;;;;;15.68;4.82;;;12.00;99.90;;;;;;5092573;28;20055;-57
2023/06/07 00:38:32;;;;;;;13.85;5.22;;;12.00;99.90;;;;;;5092625;28;20032;-57
2023/06/07 00:40:57;;;;;;;18.67;5.38;;;12.00;99.90;;;;;;5092823;28;20440;-58
2023/06/07 00:43:24;;;;;;;13.35;4.78;;;11.90;99.90;;;;;;5092546;28;20044;-56
2023/06/07 00:45:50;;;;;;;16.50;4.70;;;11.90;99.90;;;;;;5091124;28;20538;-57
2023/06/07 00:48:16;;;;;;;13.23;4.10;;;12.00;99.90;;;;;;5091087;28;20119;-57
2023/06/07 00:50:41;;;;;;;18.05;5.43;;;12.00;99.90;;;;;;5092095;28;20435;-57
2023/06/07 00:53:08;;;;;;;14.82;4.35;;;11.90;99.90;;;;;;5092778;28;20040;-57
2023/06/07 00:55:34;;;;;;;13.82;4.65;;;11.90;99.90;;;;;;5091950;28;20060;-58
2023/06/07 00:58:00;;;;;;;20.63;5.13;;;11.90;99.90;;;;;;5092513;28;20044;-56
2023/06/07 01:00:28;;;;;;;9.93;3.60;;;11.90;99.90;;;;;;5092408;28;20036;-57
2023/06/07 01:02:55;;;;;;;13.68;4.30;;;11.90;99.90;;;;;;5091935;28;20040;-57
2023/06/07 01:05:21;;;;;;;13.88;4.75;;;11.90;99.90;;;;;;5092317;28;20543;-58
2023/06/07 01:07:48;;;;;;;12.93;4.15;;;11.80;99.90;;;;;;5092174;28;20032;-57
2023/06/07 01:10:15;;;;;;;14.02;4.72;;;11.80;99.90;;;;;;5091277;28;20514;-58
2023/06/07 01:12:43;;;;;;;11.43;4.13;;;11.90;99.90;;;;;;5090787;28;20218;-58
2023/06/07 01:15:11;;;;;;;13.38;4.88;;;11.80;99.90;;;;;;5092193;28;20048;-58
2023/06/07 01:17:41;;;;;;;11.88;4.32;;;11.80;99.90;;;;;;5092398;28;20047;-58
2023/06/07 01:20:13;;;;;;;20.75;5.30;;;11.80;99.90;;;;;;5092536;28;20024;-58
2023/06/07 01:22:42;;;;;;;16.42;4.40;;;11.80;99.90;;;;;;5092635;28;20036;-56
2023/06/07 01:25:09;;;;;;;15.52;4.07;;;11.80;99.90;;;;;;5092293;28;20042;-56
2023/06/07 01:27:37;;;;;;;13.25;4.25;;;11.80;99.90;;;;;;5094240;28;20051;-57
2023/06/07 01:30:03;;;;;;;18.98;5.10;;;11.80;99.90;;;;;;5096180;28;20040;-57
2023/06/07 01:32:30;;;;;;;21.63;4.47;;;11.80;99.90;;;;;;5095997;28;20044;-57
2023/06/07 01:34:56;;;;;;;14.25;3.50;;;11.80;99.90;;;;;;5095641;28;20598;-57
2023/06/07 01:37:23;;;;;;;14.98;4.30;;;11.80;99.90;;;;;;5095510;28;20097;-56
2023/06/07 01:39:51;;;;;;;13.77;3.72;;;11.90;99.90;;;;;;5094319;28;20063;-56
2023/06/07 01:42:18;;;;;;;13.45;4.20;;;11.90;99.90;;;;;;5095512;28;20040;-57
2023/06/07 01:44:46;;;;;;;12.02;4.15;;;11.90;99.90;;;;;;5095267;28;20494;-57
2023/06/07 01:47:12;;;;;;;15.15;3.80;;;12.00;99.90;;;;;;5095525;28;20066;-58
2023/06/07 01:49:38;;;;;;;13.68;4.57;;;11.90;99.90;;;;;;5095578;28;20039;-57
2023/06/07 01:52:04;;;;;;;15.05;4.28;;;11.90;99.90;;;;;;5095357;28;20094;-57
2023/06/07 01:54:30;;;;;;;11.48;3.88;;;11.80;99.90;;;;;;5127988;27;20490;-56
2023/06/07 01:56:59;;;;;;;9.85;3.72;;;11.80;99.90;;;;;;5094914;28;20055;-56
2023/06/07 02:00:02;;;;;;;18.13;4.53;;;11.90;99.90;;;;;;5094989;28;20032;-57
2023/06/07 02:02:49;;;;;;;19.35;3.92;;;11.90;99.90;;;;;;5095144;28;20028;-56
2023/06/07 02:05:24;;;;;;;16.17;4.15;;;11.80;99.90;;;;;;5093678;28;20035;-57
2023/06/07 02:07:53;;;;;;;12.73;4.28;;;11.90;99.90;;;;;;5095181;28;20047;-58
2023/06/07 02:10:25;;;;;;;16.05;4.60;;;11.90;99.90;;;;;;5094699;28;20036;-58
2023/06/07 02:12:53;;;;;;;15.35;4.22;;;11.80;99.90;;;;;;5094780;28;20096;-58
2023/06/07 02:15:20;;;;;;;15.80;4.27;;;11.90;99.90;;;;;;5095032;28;20153;-58
2023/06/07 02:18:01;;;;;;;13.13;4.20;;;11.80;99.90;;;;;;5094519;28;20848;-57
2023/06/07 02:20:31;;;;;;;17.20;4.00;;;11.90;99.90;;;;;;5094977;28;20101;-57
2023/06/07 02:22:57;;;;;;;14.43;3.65;;;11.80;99.90;;;;;;5094896;28;20036;-58
2023/06/07 02:25:24;;;;;;;15.88;4.50;;;11.90;99.90;;;;;;5094893;28;20397;-59
2023/06/07 02:27:49;;;;;;;23.55;5.13;;;11.90;99.90;;;;;;5094579;28;20043;-57
2023/06/07 02:30:15;;;;;;;16.33;4.82;;;11.90;99.90;;;;;;5094539;28;20032;-56
2023/06/07 02:32:45;;;;;;;19.73;5.10;;;12.00;99.90;;;;;;5094467;28;20375;-56
2023/06/07 02:35:11;;;;;;;15.10;4.93;;;12.00;99.90;;;;;;5094612;28;20073;-57
2023/06/07 02:37:37;;;;;;;15.10;4.93;;;12.00;99.90;;;;;;5094109;28;20371;-57
2023/06/07 02:40:10;;;;;;;16.08;5.13;;;11.90;99.90;;;;;;5093604;28;20035;-57
2023/06/07 02:42:36;;;;;;;14.40;4.20;;;11.90;99.90;;;;;;5094602;28;20040;-58
2023/06/07 02:45:06;;;;;;;15.77;4.60;;;12.00;99.90;;;;;;5093860;28;20036;-56
2023/06/07 02:47:31;;;;;;;15.27;4.53;;;12.00;99.90;;;;;;5094408;28;20036;-56
2023/06/07 02:49:57;;;;;;;15.85;4.47;;;12.00;99.90;;;;;;5094097;28;20115;-57
2023/06/07 02:52:25;;;;;;;12.80;4.43;;;12.00;99.90;;;;;;5094264;28;20069;-58
2023/06/07 02:54:50;;;;;;;13.60;4.63;;;12.10;99.90;;;;;;5094038;28;20091;-58
2023/06/07 02:57:16;;;;;;;18.73;5.22;;;12.10;99.90;;;;;;5094229;28;20082;-58
2023/06/07 02:59:42;;;;;;;16.83;4.78;;;12.10;99.90;;;;;;5093946;28;20040;-58
2023/06/07 03:02:07;;;;;;;11.90;4.13;;;12.10;99.90;;;;;;5094092;28;20557;-57
2023/06/07 03:04:33;;;;;;;16.23;4.60;;;12.00;99.90;;;;;;5093889;28;20032;-57
2023/06/07 03:07:00;;;;;;;15.35;4.65;;;12.10;99.90;;;;;;5093741;28;20109;-58
2023/06/07 03:09:25;;;;;;;14.35;3.97;;;12.10;99.90;;;;;;5093892;28;20047;-58
2023/06/07 03:11:51;;;;;;;11.13;3.75;;;12.10;99.90;;;;;;5093668;28;20040;-58
2023/06/07 03:14:19;;;;;;;19.02;5.32;;;12.10;99.90;;;;;;5093855;28;20032;-57
2023/06/07 03:16:45;;;;;;;13.98;4.05;;;12.20;99.90;;;;;;5093779;28;20119;-58
2023/06/07 03:19:11;;;;;;;17.90;4.20;;;12.20;99.90;;;;;;5091885;28;20055;-58
2023/06/07 03:21:44;;;;;;;16.92;4.63;;;12.30;99.90;;;;;;5126169;27;20040;-57
2023/06/07 03:24:13;;;;;;;16.58;4.72;;;12.30;99.90;;;;;;5093500;28;20063;-57
2023/06/07 03:26:39;;;;;;;14.88;4.65;;;12.30;99.90;;;;;;5093369;28;20470;-58
2023/06/07 03:29:05;;;;;;;19.20;4.97;;;12.30;99.90;;;;;;5093185;28;20491;-58
2023/06/07 03:31:31;;;;;;;17.75;5.00;;;12.30;99.90;;;;;;5093173;28;20541;-57
2023/06/07 03:33:58;;;;;;;20.83;5.13;;;12.30;99.90;;;;;;5093733;28;20044;-57
2023/06/07 03:36:28;;;;;;;21.65;5.70;;;12.30;99.90;;;;;;5093261;28;20089;-58
2023/06/07 03:38:58;;;;;;;17.35;4.63;;;12.40;99.90;;;;;;5093507;28;20036;-56
2023/06/07 03:41:25;;;;;;;21.92;4.70;;;12.40;99.90;;;;;;5093154;28;20040;-58
2023/06/07 03:43:51;;;;;;;11.02;3.97;;;12.40;99.90;;;;;;5065672;28;20398;-56
2023/06/07 03:46:17;;;;;;;14.50;4.65;;;12.40;99.90;;;;;;5092032;28;20035;-58
2023/06/07 03:48:43;;;;;;;14.77;3.95;;;12.50;99.90;;;;;;5092927;28;20105;-56
2023/06/07 03:51:09;;;;;;;19.00;4.82;;;12.60;99.90;;;;;;5092579;28;20036;-57
2023/06/07 03:53:35;;;;;;;10.57;3.88;;;12.50;99.90;;;;;;5090871;28;20474;-57
2023/06/07 03:56:01;;;;;;;11.10;3.30;;;12.60;99.90;;;;;;5081148;28;20127;-56
2023/06/07 03:58:27;;;;;;;19.65;4.07;;;12.50;99.90;;;;;;5092896;28;20044;-58
2023/06/07 04:00:52;;;;;;;15.45;4.30;;;12.50;99.90;;;;;;5092751;28;20036;-56
2023/06/07 04:03:24;;;;;;;8.73;3.25;;;12.60;99.90;;;;;;5125677;27;20044;-57
2023/06/07 04:05:52;;;;;;;18.95;4.00;;;12.60;99.90;;;;;;5093430;28;20083;-57
2023/06/07 04:08:18;;;;;;;14.90;4.25;;;12.50;99.90;;;;;;5092907;28;20059;-57
2023/06/07 04:10:44;;;;;;;16.17;3.97;;;12.50;99.90;;;;;;5092972;28;20470;-57
2023/06/07 04:13:10;;;;;;;17.95;4.03;;;12.60;99.90;;;;;;5092880;28;20040;-57
2023/06/07 04:15:35;;;;;;;14.23;4.68;;;12.70;99.90;;;;;;5092798;28;20429;-57
2023/06/07 04:18:01;;;;;;;9.70;3.20;;;12.70;99.90;;;;;;5092375;28;20040;-57
2023/06/07 04:20:29;;;;;;;13.57;3.47;;;12.70;99.90;;;;;;5092482;28;20081;-56
2023/06/07 04:22:55;;;;;;;13.55;4.22;;;12.80;99.90;;;;;;5092388;28;20043;-57
2023/06/07 04:25:21;;;;;;;13.95;4.07;;;12.80;99.90;;;;;;5092634;28;20381;-58
2023/06/07 04:27:48;;;;;;;13.27;3.70;;;12.70;99.90;;;;;;5092773;28;20397;-57
2023/06/07 04:30:15;;;;;;;9.73;3.70;;;12.80;99.90;;;;;;5092462;28;20040;-57
2023/06/07 04:32:43;;;;;;;12.85;3.85;;;12.90;99.90;;;;;;5092424;28;20533;-57
2023/06/07 04:35:09;;;;;;;14.88;3.88;;;12.90;99.90;;;;;;5092730;28;20067;-58
2023/06/07 04:37:35;;;;;;;12.57;3.60;;;12.80;99.90;;;;;;5092732;28;20036;-57
2023/06/07 04:40:01;;;;;;;11.02;3.92;;;12.80;99.90;;;;;;5092600;28;20478;-57
2023/06/07 04:42:27;;;;;;;11.50;3.20;;;12.90;99.90;;;;;;5092153;28;20451;-58
2023/06/07 04:44:53;;;;;;;16.77;3.60;;;13.00;99.90;;;;;;5092249;28;20032;-60
2023/06/07 04:47:19;;;;;;;15.45;3.75;;;13.00;99.90;;;;;;5092677;28;20032;-58
2023/06/07 04:49:46;;;;;;;12.20;3.47;;;13.00;99.90;;;;;;5092403;28;20031;-55
2023/06/07 04:52:19;;;;;;;16.60;3.40;;;13.00;99.90;;;;;;5092372;28;20040;-56
2023/06/07 04:54:46;;;;;;;12.75;3.28;;;13.10;99.90;;;;;;5092356;28;20057;-56
2023/06/07 04:57:13;;;;;;;12.75;3.45;;;13.10;99.90;;;;;;5092372;28;20044;-57
2023/06/07 04:59:42;;;;;;;16.33;3.72;;;13.10;99.90;;;;;;5092680;28;20069;-56
2023/06/07 05:02:07;;;;;;;;;;;13.10;99.90;;;;;;5094073;28;20036;-57
2023/06/07 05:04:33;;;;;;;16.55;3.65;;;13.20;99.90;;;;;;5094965;28;19923;-58
2023/06/07 05:07:00;;;;;;;13.95;3.58;;;13.20;99.90;;;;;;5095923;28;20115;-57
2023/06/07 05:09:26;;;;;;;10.13;2.83;;;13.20;99.90;;;;;;5096439;28;20387;-57
2023/06/07 05:11:52;;;;;;;15.52;3.60;;;13.20;99.90;;;;;;5096162;28;20044;-56
2023/06/07 05:14:18;;;;;;;9.98;3.20;;;13.30;99.90;;;;;;5095961;28;20043;-57
2023/06/07 05:16:44;;;;;;;14.48;4.10;;;13.30;99.90;;;;;;5095767;28;20040;-56
2023/06/07 05:19:13;;;;;;;11.50;3.08;;;13.30;99.90;;;;;;5096077;28;20111;-56
2023/06/07 05:21:39;;;;;;;14.25;3.97;;;13.40;99.90;;;;;;5095614;28;20493;-57
2023/06/07 05:24:05;;;;;;;9.27;3.42;;;13.40;99.90;;;;;;5095878;28;20035;-57
2023/06/07 05:26:31;;;;;;;14.40;3.67;;;13.50;99.90;;;;;;5095817;28;20512;-57
2023/06/07 05:28:56;;;;;;;10.30;3.30;;;13.50;99.90;;;;;;5095493;28;20075;-57
2023/06/07 05:31:29;;;;;;;13.80;3.53;;;13.50;99.90;;;;;;5095969;28;20036;-57
2023/06/07 05:33:54;;;;;;;12.93;3.47;;;13.60;99.90;;;;;;5095389;28;20039;-57
2023/06/07 05:36:20;;;;;;;13.90;3.78;;;13.50;99.90;;;;;;5095022;28;20043;-57
2023/06/07 05:38:46;;;;;;;14.00;4.28;;;13.60;99.90;;;;;;5095628;28;20040;-58
2023/06/07 05:41:12;;;;;;;13.23;3.72;;;13.50;99.90;;;;;;5095134;28;20093;-56
2023/06/07 05:43:38;;;;;;;13.23;4.07;;;13.60;99.90;;;;;;5095605;28;20050;-57
2023/06/07 05:46:04;;;;;;;11.73;3.80;;;13.70;99.90;;;;;;5095359;28;20466;-56
2023/06/07 05:48:29;;;;;;;10.48;3.60;;;13.70;99.90;;;;;;5094847;28;20482;-57
2023/06/07 05:50:56;;;;;;;9.70;3.50;;;13.70;99.90;;;;;;5094940;28;20040;-58
2023/06/07 05:53:23;;;;;;;9.13;3.03;;;13.70;99.90;;;;;;5095340;28;20044;-57
2023/06/07 05:55:50;;;;;;;14.18;3.90;;;13.70;99.90;;;;;;5094920;28;20463;-58
2023/06/07 05:58:15;;;;;;;12.00;3.55;;;13.80;99.90;;;;;;5095096;28;20114;-57
2023/06/07 06:00:44;;;;;;;15.55;3.33;;;13.80;99.90;;;;;;5095155;28;20048;-57
2023/06/07 06:03:09;;;;;;;12.10;3.63;;;13.90;99.90;;;;;;5095355;28;20040;-57
2023/06/07 06:05:35;;;;;;;9.52;3.50;;;13.90;99.90;;;;;;5094897;28;20036;-57
2023/06/07 06:08:02;;;;;;;10.20;3.15;;;14.10;99.90;;;;;;5094965;28;20070;-57
2023/06/07 06:10:28;;;;;;;16.13;3.85;;;14.10;99.90;;;;;;5094680;28;20390;-56
2023/06/07 06:12:55;;;;;;;9.85;3.45;;;14.10;99.90;;;;;;5094875;28;20050;-56
2023/06/07 06:15:21;;;;;;;11.35;3.80;;;14.00;99.90;;;;;;5093628;28;20044;-57
2023/06/07 06:17:54;;;;;;;11.52;3.05;;;14.20;99.90;;;;;;5094381;28;20376;-57
2023/06/07 06:20:20;;;;;;;10.70;3.95;;;14.20;99.90;;;;;;5094984;28;20040;-57
2023/06/07 06:22:46;;;;;;;17.85;3.28;;;14.20;99.90;;;;;;5094341;28;20047;-56
2023/06/07 06:25:14;;;;;;;10.27;3.72;;;14.30;99.90;;;;;;5093406;28;20036;-58
2023/06/07 06:27:41;;;;;;;11.38;3.25;;;14.40;99.90;;;;;;5094399;28;20067;-56
2023/06/07 06:30:08;;;;;;;11.30;2.90;;;14.40;99.90;;;;;;5094361;28;20043;-58
2023/06/07 06:32:34;;;;;;;18.02;3.97;;;14.60;99.90;;;;;;5094673;28;20082;-57
2023/06/07 06:35:00;;;;;;;10.98;2.85;;;14.80;99.90;;;;;;5092366;28;20536;-57
2023/06/07 06:37:26;;;;;;;10.88;3.30;;;14.90;99.90;;;;;;5094333;28;20048;-57
2023/06/07 06:39:52;;;;;;;11.30;3.33;;;15.00;99.90;;;;;;5127009;27;20031;-57
2023/06/07 06:42:18;;;;;;;16.15;3.92;;;15.20;99.90;;;;;;5094727;28;20103;-57
2023/06/07 06:44:43;;;;;;;8.90;3.35;;;15.40;99.90;;;;;;5094161;28;20136;-57
2023/06/07 06:47:09;;;;;;;15.85;3.85;;;15.30;99.90;;;;;;5094374;28;20047;-58
2023/06/07 06:49:35;;;;;;;12.90;3.97;;;15.50;99.90;;;;;;5094365;28;20038;-57
2023/06/07 06:52:01;;;;;;;13.02;3.67;;;15.90;99.90;;;;;;5093905;28;20470;-57
2023/06/07 06:54:26;;;;;;;19.25;4.00;;;15.80;99.90;;;;;;5094021;28;20036;-56
2023/06/07 06:56:53;;;;;;;14.18;3.65;;;16.00;99.90;;;;;;5094165;28;20040;-56
2023/06/07 06:59:19;;;;;;;8.80;2.83;;;16.30;99.90;;;;;;5094228;28;20107;-57
2023/06/07 07:01:46;;;;;;;12.52;3.28;;;16.20;99.90;;;;;;5094149;28;20118;-56
2023/06/07 07:04:13;;;;;;;15.13;4.15;;;16.50;99.90;;;;;;5093430;28;20119;-56
2023/06/07 07:06:40;;;;;;;9.98;3.50;;;16.60;99.90;;;;;;5092432;28;20051;-57
2023/06/07 07:09:06;;;;;;;12.48;3.33;;;16.80;99.90;;;;;;5093427;28;20120;-56
2023/06/07 07:11:31;;;;;;;16.75;3.90;;;16.90;99.90;;;;;;5093660;28;20133;-57
2023/06/07 07:13:57;;;;;;;7.95;2.95;;;17.10;99.90;;;;;;5093747;28;20032;-57
2023/06/07 07:16:22;;;;;;;14.68;3.22;;;17.30;99.90;;;;;;5092163;28;20105;-57
2023/06/07 07:18:48;;;;;;;13.35;3.33;;;17.90;99.90;;;;;;5094065;28;20545;-57
2023/06/07 07:21:14;;;;;;;10.52;2.53;;;18.10;99.90;;;;;;5093532;28;20038;-56
2023/06/07 07:23:40;;;;;;;13.90;3.17;;;17.80;99.90;;;;;;5093255;28;20051;-58
2023/06/07 07:26:05;;;;;;;11.43;2.92;;;17.70;99.90;;;;;;5092482;28;20035;-57
2023/06/07 07:28:31;;;;;;;16.27;4.00;;;17.50;99.90;;;;;;5092931;28;20044;-58
2023/06/07 07:30:57;;;;;;;14.07;3.22;;;17.30;99.90;;;;;;5093266;28;20043;-57
2023/06/07 07:33:22;;;;;;;11.20;3.40;;;17.20;99.90;;;;;;5093064;28;20067;-58
2023/06/07 07:35:48;;;;;;;10.63;2.67;;;17.00;99.90;;;;;;5093244;28;20036;-57
2023/06/07 07:38:15;;;;;;;10.95;3.00;;;17.10;99.90;;;;;;5092964;28;20047;-58
2023/06/07 07:40:43;;;;;;;9.77;3.17;;;17.00;99.90;;;;;;5093152;28;20052;-57
2023/06/07 07:43:10;;;;;;;14.98;3.42;;;17.30;99.90;;;;;;5093365;28;20044;-57
2023/06/07 07:45:36;;;;;;;12.10;3.42;;;17.60;99.90;;;;;;5093328;28;20038;-57
2023/06/07 07:48:02;;;;;;;15.68;3.33;;;17.80;99.90;;;;;;5093237;28;20474;-57
2023/06/07 07:50:29;;;;;;;11.30;2.92;;;17.70;99.90;;;;;;5091940;28;20038;-56
2023/06/07 07:52:56;;;;;;;9.40;3.25;;;17.70;99.90;;;;;;5092963;28;20080;-57
2023/06/07 07:55:23;;;;;;;10.77;3.00;;;18.00;99.90;;;;;;5092449;28;20059;-56
2023/06/07 07:57:49;;;;;;;7.75;3.22;;;18.60;99.90;;;;;;5093033;28;20122;-56
2023/06/07 08:00:16;;;;;;;9.68;3.42;;;18.70;99.90;;;;;;5092655;28;20077;-56
2023/06/07 08:02:42;;;;;;;10.77;2.90;;;18.70;99.90;;;;;;5092915;28;20113;-56
2023/06/07 08:05:08;;;;;;;8.98;3.13;;;18.70;99.90;;;;;;5092780;28;20426;-57
2023/06/07 08:07:34;;;;;;;9.50;3.25;;;18.80;99.90;;;;;;5092596;28;20039;-56
2023/06/07 08:10:00;;;;;;;13.52;3.80;;;19.00;99.90;;;;;;5092382;28;20071;-57
2023/06/07 08:12:26;;;;;;;10.20;3.53;;;19.30;99.90;;;;;;5092610;28;20044;-57
2023/06/07 08:14:52;;;;;;;8.55;3.10;;;19.40;99.90;;;;;;5092798;28;20051;-57
2023/06/07 08:17:19;;;;;;;8.68;3.17;;;19.40;99.90;;;;;;5092893;28;20040;-57
2023/06/07 08:19:45;;;;;;;9.87;3.63;;;19.70;99.90;;;;;;5091199;28;20051;-57
2023/06/07 08:22:11;;;;;;;10.50;3.63;;;19.70;99.90;;;;;;5092631;28;20620;-56
2023/06/07 08:24:37;;;;;;;9.43;3.25;;;19.90;99.90;;;;;;5092232;28;20039;-57
2023/06/07 08:27:04;;;;;;;11.75;3.55;;;20.20;99.90;;;;;;5092569;28;20032;-57
2023/06/07 08:29:29;;;;;;;8.48;3.03;;;20.50;99.90;;;;;;5092312;28;20508;-57
2023/06/07 08:31:56;;;;;;;7.38;2.70;;;20.70;99.90;;;;;;5092253;28;20122;-56
2023/06/07 08:34:27;;;;;;;11.15;2.80;;;20.60;99.90;;;;;;5092538;28;20036;-57
2023/06/07 08:36:54;;;;;;;7.97;3.42;;;20.60;99.90;;;;;;5095014;28;20040;-57
2023/06/07 08:39:20;;;;;;;11.57;2.92;;;20.90;99.90;;;;;;5096119;28;20036;-57
2023/06/07 08:41:46;;;;;;;13.15;3.50;;;21.00;99.90;;;;;;5096363;28;20106;-56
2023/06/07 08:44:11;;;;;;;10.77;3.08;;;21.30;99.90;;;;;;5096411;28;20044;-57
2023/06/07 08:46:38;;;;;;;10.13;3.85;;;21.50;99.90;;;;;;5096383;28;20379;-57
2023/06/07 08:49:05;;;;;;;10.60;2.83;;;21.50;99.90;;;;;;5096120;28;20061;-57
2023/06/07 08:51:36;;;;;;;11.68;3.55;;;21.50;99.90;;;;;;5096469;28;20036;-60
2023/06/07 08:54:03;;;;;;;9.15;3.53;;;21.60;99.90;;;;;;5096222;28;20058;-57
2023/06/07 08:56:31;;;;;;;10.13;3.35;;;21.40;99.90;;;;;;5096118;28;20143;-56
2023/06/07 08:58:57;;;;;;;12.18;4.18;;;21.60;99.90;;;;;;5096216;28;20040;-57
2023/06/07 09:01:23;;;;;;;15.23;4.45;;;21.60;99.90;;;;;;5095982;28;20032;-57
2023/06/07 09:03:53;;;;;;;9.30;3.50;;;21.40;99.90;;;;;;5095934;28;20043;-58
2023/06/07 09:06:24;;;;;;;13.32;3.85;;;21.50;99.90;;;;;;5095981;28;20032;-58
2023/06/07 09:08:50;;;;;;;17.30;4.13;;;21.70;99.90;;;;;;5095876;28;20044;-58
2023/06/07 09:11:16;;;;;;;8.82;3.38;;;21.80;99.90;;;;;;5096131;28;20042;-58
2023/06/07 09:13:42;;;;;;;10.57;3.65;;;21.70;99.90;;;;;;5096285;28;20051;-58
2023/06/07 09:16:11;;;;;;;14.00;3.25;;;21.90;99.90;;;;;;5094640;28;20037;-58
2023/06/07 09:18:53;;;;;;;18.63;4.75;;;22.20;99.90;;;;;;5095528;28;20039;-58
2023/06/07 09:21:21;;;;;;;9.05;3.15;;;22.50;99.90;;;;;;5095242;28;20048;-58
2023/06/07 09:23:48;;;;;;;8.23;2.58;;;22.50;99.90;;;;;;5095752;28;20044;-57
2023/06/07 09:26:16;;;;;;;16.55;4.40;;;22.50;99.90;;;;;;5095481;28;20047;-56
2023/06/07 09:28:42;;;;;;;6.03;2.60;;;22.60;99.90;;;;;;5095570;28;20380;-58
2023/06/07 09:31:08;;;;;;;9.10;3.33;;;22.60;99.90;;;;;;5095440;28;20274;-58
2023/06/07 09:33:34;;;;;;;8.38;2.67;;;22.60;99.90;;;;;;5095124;28;20510;-58
2023/06/07 09:36:18;;;;;;;8.52;3.20;;;22.80;99.90;;;;;;5095352;28;20064;-58
2023/06/07 09:38:45;;;;;;;10.98;3.22;;;22.80;99.90;;;;;;5127793;27;20086;-58
2023/06/07 09:41:11;;;;;;;10.20;3.30;;;22.70;99.90;;;;;;5095300;28;20414;-57
2023/06/07 09:43:47;;;;;;;20.80;4.47;;;22.60;99.90;;;;;;5093884;28;20036;-57
2023/06/07 09:46:18;;;;;;;17.92;4.25;;;22.60;99.90;;;;;;5095145;28;20036;-57
2023/06/07 09:48:51;;;;;;;10.20;3.58;;;22.80;99.90;;;;;;5094453;28;20111;-56
2023/06/07 09:51:18;;;;;;;9.68;3.75;;;22.60;99.90;;;;;;5128322;27;20044;-57
2023/06/07 09:54:01;;;;;;;11.63;3.83;;;22.50;99.90;;;;;;5095314;28;20036;-57
2023/06/07 09:56:27;;;;;;;11.52;3.85;;;22.60;99.90;;;;;;5094699;28;20060;-58
2023/06/07 09:59:07;;;;;;;15.80;4.03;;;23.00;99.90;;;;;;5094678;28;20509;-58
2023/06/07 10:01:35;;;;;;;11.80;3.55;;;23.10;99.90;;;;;;5127705;27;20032;-58
2023/06/07 10:04:04;;;;;;;11.50;4.53;;;23.00;99.90;;;;;;5094513;28;20032;-58
2023/06/07 10:06:32;;;;;;;14.55;3.80;;;22.90;99.90;;;;;;5094359;28;20040;-58
2023/06/07 10:09:03;;;;;;;10.88;4.13;;;23.00;99.90;;;;;;5094889;28;20036;-58
2023/06/07 10:11:35;;;;;;;10.38;3.55;;;22.70;99.90;;;;;;5094864;28;20036;-58
2023/06/07 10:14:10;;;;;;;12.77;3.90;;;22.90;99.90;;;;;;5095089;28;20129;-58
2023/06/07 10:16:39;;;;;;;17.85;4.72;;;23.10;99.90;;;;;;5094267;28;20051;-58
2023/06/07 10:19:21;;;;;;;8.18;3.13;;;23.20;99.90;;;;;;5094225;28;20047;-58
2023/06/07 10:21:50;;;;;;;11.85;3.47;;;23.10;99.90;;;;;;5067064;28;20111;-58
2023/06/07 10:24:24;;;;;;;11.25;3.22;;;23.30;99.90;;;;;;5094133;28;20107;-58
2023/06/07 10:27:20;;;;;;;8.73;2.80;;;23.20;99.90;;;;;;5094142;28;20101;-57
2023/06/07 10:30:09;;;;;;;9.60;3.35;;;23.30;99.90;;;;;;5093999;28;20043;-58
2023/06/07 10:32:38;;;;;;;6.57;3.00;;;23.30;99.90;;;;;;5094841;28;20083;-58
2023/06/07 10:35:09;;;;;;;9.18;3.53;;;23.30;99.90;;;;;;5093816;28;20274;-58
2023/06/07 10:37:40;;;;;;;12.38;3.80;;;23.50;99.90;;;;;;5093941;28;20420;-59
2023/06/07 10:40:14;;;;;;;14.18;4.00;;;23.50;99.90;;;;;;5094025;28;20024;-58
2023/06/07 10:42:43;;;;;;;10.23;3.15;;;23.30;99.90;;;;;;5094201;28;20036;-57
2023/06/07 10:45:14;;;;;;;10.98;4.13;;;23.50;99.90;;;;;;5094248;28;20115;-57
2023/06/07 10:47:43;;;;;;;9.43;3.60;;;23.50;99.90;;;;;;5093845;28;20075;-57
2023/06/07 10:50:27;;;;;;;;;;;23.40;99.90;;;;;;5094100;28;20058;-57
2023/06/07 10:52:56;;;;;;;11.60;4.07;;;23.30;99.90;;;;;;5094186;28;19920;-58
2023/06/07 10:55:31;;;;;;;10.93;3.85;;;23.30;99.90;;;;;;5093326;28;20040;-58
2023/06/07 10:57:58;;;;;;;8.43;3.50;;;23.40;99.90;;;;;;5093683;28;20055;-57
2023/06/07 11:00:30;;;;;;;13.15;4.68;;;23.50;99.90;;;;;;5092354;28;20050;-57
2023/06/07 11:03:05;;;;;;;15.02;4.93;;;23.50;99.90;;;;;;5126787;27;20036;-57
2023/06/07 11:05:58;;;;;;;10.65;3.78;;;23.50;99.90;;;;;;5093452;28;20044;-58
2023/06/07 11:08:28;;;;;;;16.00;3.70;;;23.70;99.90;;;;;;5093497;28;20036;-58
2023/06/07 11:11:01;;;;;;;10.48;4.07;;;23.60;99.90;;;;;;5093360;28;20040;-58
2023/06/07 11:13:39;;;;;;;8.73;3.70;;;23.70;99.90;;;;;;5093505;28;20076;-57
2023/06/07 11:16:23;;;;;;;9.75;3.47;;;23.80;99.90;;;;;;5093195;28;20040;-57
2023/06/07 11:18:52;;;;;;;13.43;3.63;;;23.80;99.90;;;;;;5093446;28;20063;-58
2023/06/07 11:21:18;;;;;;;11.57;3.15;;;23.80;99.90;;;;;;5093055;28;20043;-57
2023/06/07 11:23:44;;;;;;;10.00;4.35;;;23.90;99.90;;;;;;5093095;28;20110;-58
2023/06/07 11:26:13;;;;;;;12.30;3.85;;;23.70;99.90;;;;;;5125540;27;20044;-57
2023/06/07 11:28:40;;;;;;;14.13;4.10;;;23.80;99.90;;;;;;5093323;28;20071;-58
2023/06/07 11:31:12;;;;;;;11.20;3.80;;;24.00;99.90;;;;;;5126110;27;20040;-56
2023/06/07 11:33:40;;;;;;;11.68;3.13;;;23.90;99.90;;;;;;5065062;28;20119;-59
2023/06/07 11:36:06;;;;;;;8.32;3.08;;;23.90;99.90;;;;;;5092795;28;20050;-58
2023/06/07 11:38:32;;;;;;;9.05;4.05;;;24.00;99.90;;;;;;5125440;27;20036;-57
2023/06/07 11:40:58;;;;;;;10.18;3.60;;;23.90;99.90;;;;;;5092973;28;20424;-58
2023/06/07 11:43:26;;;;;;;12.90;4.28;;;24.00;99.90;;;;;;5092728;28;20040;-58
2023/06/07 11:45:56;;;;;;;9.02;3.42;;;24.00;99.90;;;;;;5092890;28;20089;-58
2023/06/07 11:48:28;;;;;;;10.82;3.95;;;24.00;99.90;;;;;;5091512;28;20113;-57
2023/06/07 11:50:54;;;;;;;14.70;3.50;;;24.00;99.90;;;;;;5092657;28;20097;-59
2023/06/07 11:53:21;;;;;;;15.90;4.13;;;24.00;99.90;;;;;;5092705;28;20111;-58
2023/06/07 11:55:47;;;;;;;13.38;4.18;;;23.90;99.90;;;;;;5092495;28;20526;-58
2023/06/07 11:58:13;;;;;;;8.43;3.50;;;23.80;99.90;;;;;;5092554;28;20075;-58
2023/06/07 12:00:42;;;;;;;12.02;3.70;;;24.00;99.90;;;;;;5092465;28;20043;-59
2023/06/07 12:03:10;;;;;;;12.27;3.47;;;24.00;99.90;;;;;;5125374;27;20119;-58
2023/06/07 12:05:36;;;;;;;10.52;3.83;;;24.10;99.90;;;;;;5092406;28;20039;-57
2023/06/07 12:08:07;;;;;;;6.50;3.20;;;24.00;99.90;;;;;;5092578;28;20047;-58
2023/06/07 12:10:36;;;;;;;8.45;3.53;;;23.90;99.90;;;;;;5092048;28;20051;-58
2023/06/07 12:13:18;;;;;;;13.13;4.03;;;24.10;99.90;;;;;;5092603;28;20063;-58
2023/06/07 12:15:48;;;;;;;14.25;3.80;;;24.10;99.90;;;;;;5092131;28;20092;-58
2023/06/07 12:18:19;;;;;;;10.77;3.95;;;24.00;99.90;;;;;;5091986;28;20044;-58
2023/06/07 12:20:47;;;;;;;9.15;3.30;;;23.80;99.90;;;;;;5092711;28;20040;-58
2023/06/07 12:23:14;;;;;;;9.63;3.22;;;23.70;99.90;;;;;;5092467;28;20107;-58
2023/06/07 12:25:41;;;;;;;10.82;3.22;;;23.80;99.90;;;;;;5092294;28;20074;-58
2023/06/07 12:28:09;;;;;;;9.75;3.72;;;23.80;99.90;;;;;;5092289;28;20067;-58
2023/06/07 12:30:40;;;;;;;8.85;3.67;;;23.70;99.90;;;;;;5092203;28;20591;-58
2023/06/07 12:33:12;;;;;;;9.93;3.22;;;23.70;99.90;;;;;;5092006;28;20119;-58
2023/06/07 12:35:39;;;;;;;9.00;3.17;;;24.10;99.90;;;;;;5092068;28;20062;-58
2023/06/07 12:38:05;;;;;;;12.93;4.03;;;24.10;99.90;;;;;;5092217;28;20036;-58
2023/06/07 12:40:32;;;;;;;8.73;3.55;;;24.00;99.90;;;;;;5092186;28;20056;-57
2023/06/07 12:42:58;;;;;;;7.47;2.63;;;23.80;99.90;;;;;;5092082;28;20474;-58